TOURFACTS.DK  
Stats and Facts from Tour de France.

Tour de France 2018 starts in 167 days
  Riders   Stages   Teams   Summits   Yearly  


 
Search by year

 2017 - St.21:
 14824 starters.
  5132 different riders.
  635 teams.
  2232 stages.
  454 restdays.
  439589.60 km.
  5653 abandonnees.


Top 3
GC
Christopher Froome86:20:55
Rigoberto Uran86:21:49
Romain Bardet86:23:15
Climb
Warren Barguil169 pt.
Primoz Roglic80 pt.
Thomas De Gendt64 pt.
Sprint
Michael Matthews359 pt.
André Greipel234 pt.
Edvald Boasson Hagen220 pt.
Youth
Simon Yates86:27:09
Louis Meintjes86:29:15
Emanuel Buchmann86:54:16
Facts from Tour de France 1950
  |   Stages.  |   Stage winners.  |   Days in yellow  |   Average speed.  |   Route.  |   Teams.  |   All riders.  |   Rookies.  |   Withdrawls.  |  

  |   GC.  |   Polka  |   Green  |   White  |   Summits. (In tour)  |   Summits. (Points)  |   Miscellaneous.  |  

Stage 13 on 27 - 07 - 1950
         Owning:    Ferdi Kübler    
Pick a stage:  1 2 3 4 5 6 7 8 9 10 11 12 13 14 15 16 17 18 19 20 21 22
  PerpignanNîmes | Dist: 215.00 km.

Average speed for all riders in stage:  32,507 km./hr.
    Place:Name:Team:Time:Km/h:
ALGMarcel MolinesNAFNorth Africa06:22:56  +  00:00:00=33,687 
FRAGeorges MeunierFRACenter-South West06:26:57  +  00:04:01=33,338 
BELStan OckersBELBelgium06:27:22  +  00:04:26=33,302 
4 SUIFerdi KüblerCHESwitzerland06:27:22  +  00:04:26=33,302 
5 BELMarcel HendrickxBELBelgium06:27:22  +  00:04:26=33,302 
6 NEDWim De RuyterNLDHolland06:27:44  +  00:04:48=33,270 
7 ITAGino SciardisFRAWest06:29:32  +  00:06:36=33,117 
8 FRAAndré BruléFRAIle De France-North East06:29:32  +  00:06:36=33,117 
9 BELMarcel VerschuerenBELAiglons Belges06:29:32  +  00:06:36=33,117 
10 FRAPierre CoganFRACenter-South West06:29:32  +  00:06:36=33,117 
11 FRAMaurice KallertFRASouth-East06:29:32  +  00:06:36=33,117 
12 BELRoger LambrechtBELBelgium06:29:32  +  00:06:36=33,117 
13 BELMarcel DupontBELBelgium06:29:32  +  00:06:36=33,117 
14 SUIPierre BrambillaFRASouth-East06:29:32  +  00:06:36=33,117 
15 FRAJean-Marie GoasmatFRAWest06:29:32  +  00:06:36=33,117 
16 FRAJean RobicFRAWest06:29:32  +  00:06:36=33,117 
17 FRAArmand AudaireFRAWest06:29:32  +  00:06:36=33,117 
18 POLAntoine FrankowskiFRAParis06:34:27  +  00:11:31=32,704 
19 BELMarcel De MulderBELAiglons Belges06:35:19  +  00:12:23=32,632 
20 FRADominique ForliniFRAParis06:35:39  +  00:12:43=32,605 
21 FRABernard GauthierFRASouth-East06:35:42  +  00:12:46=32,600 
22 LUXJean DiederichLUXLuxembourg06:36:12  +  00:13:16=32,559 
23 FRARobert CastelinFRASouth-East06:36:12  +  00:13:16=32,559 
24 ALGAhmed KebaïliNAFNorth Africa06:36:12  +  00:13:16=32,559 
25 FRASerge BlussonFRAParis06:37:31  +  00:14:35=32,451 
26 SUIEmilio Croci TortiCHESwitzerland06:37:31  +  00:14:35=32,451 
27 FRAJosé BeyaertFRAParis06:37:31  +  00:14:35=32,451 
28 MARCustodio Dos ReisNAFNorth Africa06:37:31  +  00:14:35=32,451 
29 BELJan StormsBELAiglons Belges06:37:31  +  00:14:35=32,451 
30 FRAJean BaldassariFRAParis06:37:31  +  00:14:35=32,451 
31 FRAGilbert BauvinFRAIle De France-North East06:37:31  +  00:14:35=32,451 
32 ALGMarcel ZelascoNAFNorth Africa06:37:31  +  00:14:35=32,451 
33 BELRaymond ImpanisBELBelgium06:37:31  +  00:14:35=32,451 
34 FRARobert BonnaventureFRAWest06:37:31  +  00:14:35=32,451 
35 ITAAttilio RedolfiFRAIle De France-North East06:37:31  +  00:14:35=32,451 
36 FRARoger ChupinFRAWest06:37:31  +  00:14:35=32,451 
37 FRARaoul RemyFRASouth-East06:37:31  +  00:14:35=32,451 
38 FRAKléber PiotFRAIle De France-North East06:37:31  +  00:14:35=32,451 
39 FRAMaurice De MuerFRAIle De France-North East06:37:31  +  00:14:35=32,451 
40 FRALouison BobetFRAFrance06:37:31  +  00:14:35=32,451 
41 FRARaphaël GeminianiFRAFrance06:37:31  +  00:14:35=32,451 
42 ITANello LaurediFRAFrance06:37:31  +  00:14:35=32,451 
43 FRAJean-Apotre LazaridesFRAFrance06:37:31  +  00:14:35=32,451 
44 LUXJean GoldschmitLUXLuxembourg06:37:31  +  00:14:35=32,451 
45 LUXJean KirchenLUXLuxembourg06:37:31  +  00:14:35=32,451 
46 LUXWilly KempLUXLuxembourg06:37:31  +  00:14:35=32,451 
47 FRAMarcel DussaultFRACenter-South West06:40:25  +  00:17:29=32,216 
48 BELArmand BaeyensBELAiglons Belges06:42:42  +  00:19:46=32,034 
49 BELBriek SchotteBELBelgium06:42:44  +  00:19:48=32,031 
50 BELEduard Van EndeBELBelgium06:42:44  +  00:19:48=32,031 
51 FRARoger QueugnetFRAIle De France-North East06:42:44  +  00:19:48=32,031 
52 FRARoger CretonFRAWest06:42:44  +  00:19:48=32,031 
53 FRANoel LajoieFRACenter-South West06:43:26  +  00:20:30=31,976 
54 FRAHervé ProuzetFRACenter-South West06:43:26  +  00:20:30=31,976 
55 FRAAlain MoineauFRACenter-South West06:43:26  +  00:20:30=31,976 
56 BELMaurice BlommeBELBelgium06:44:18  +  00:21:22=31,907 
57 FRAAntonin RollandFRASouth-East06:44:18  +  00:21:22=31,907 
58 FRARobert DesbatsFRAFrance06:45:16  +  00:22:20=31,831 
59 FRAEmile BaffertFRAFrance06:45:16  +  00:22:20=31,831 
60 FRAPierre MolinerisFRAFrance06:45:16  +  00:22:20=31,831 
61 FRAPaul GiguetFRAFrance06:45:16  +  00:22:20=31,831 
62 SUIFritz ZbindenCHESwitzerland06:48:02  +  00:25:06=31,615 
63 SUIGeorges AeschlimannCHESwitzerland06:48:02  +  00:25:06=31,615 
64 SUIGottfried WeilenmannCHESwitzerland06:48:02  +  00:25:06=31,615 

Withdrawls: 6
 
Rider
Team
Reason
20  BELJoseph VerhaertBELBelgiumDid not finish
38  LUXMarcel ErnzerLUXLuxembourgDid not finish
47  NEDFrans VosNLDHollandDid not finish
58  BELAlbert DubuissonBELAiglons BelgesDid not finish
93  FRAArmand DarnauguilhemFRACenter-South WestDid not finish
115  ALGAbdel-Kader ZaafNAFNorth AfricaDid not finish

Todays birthdays.

1886  Giuseppe Santhia
1907  Allegro Grandi
1936  Anton van der Steen
1952  Glauco Santoni
1957  Antonio Ferretti
1963  Silvio Martinello
1967  Alvaro Mejia
1972  Paul Van Hyfte
1984  Aurélien Passeron




Visits: